Time;durP1;ratioP1;P1;durP2;ratioP2;P2;SDS_P1;SDS_P2;PMS_P1;PMS_P2;Temp;Humidity;BMP_temperature;BMP_pressure;BME280_temperature;BME280_humidity;BME280_pressure;Samples;Min_cycle;Max_cycle;Signal;HPM_P1;HPM_P2
2021/12/26 00:00:10;;;;;;;5.00;4.43;;;;;;;;;;5076201;28;20221;-78
2021/12/26 00:02:37;;;;;;;7.07;6.20;;;;;;;;;;5095497;28;20201;-77
2021/12/26 00:05:07;;;;;;;6.68;5.35;;;;;;;;;;5082405;28;20576;-77
2021/12/26 00:07:34;;;;;;;6.05;5.25;;;;;;;;;;5080619;28;20190;-77
2021/12/26 00:10:02;;;;;;;6.65;4.45;;;;;;;;;;5091379;28;20220;-77
2021/12/26 00:12:29;;;;;;;5.90;5.13;;;;;;;;;;5072245;28;20217;-78
2021/12/26 00:14:57;;;;;;;4.97;4.28;;;;;;;;;;5073136;28;20289;-77
2021/12/26 00:17:24;;;;;;;4.70;4.20;;;;;;;;;;5072454;28;20222;-77
2021/12/26 00:19:51;;;;;;;5.82;4.05;;;;;;;;;;5072268;28;20217;-78
2021/12/26 00:22:20;;;;;;;5.22;4.38;;;;;;;;;;5095241;28;20367;-77
2021/12/26 00:24:47;;;;;;;5.63;5.05;;;;;;;;;;5093663;28;20530;-76
2021/12/26 00:27:14;;;;;;;5.93;4.60;;;;;;;;;;5083058;28;20658;-77
2021/12/26 00:29:41;;;;;;;6.53;4.45;;;;;;;;;;5079286;28;20686;-77
2021/12/26 00:32:09;;;;;;;7.32;5.40;;;;;;;;;;5072568;28;20217;-77
2021/12/26 00:34:37;;;;;;;8.57;6.25;;;;;;;;;;5089054;28;20201;-77
2021/12/26 00:37:04;;;;;;;6.22;5.10;;;;;;;;;;5090964;28;20220;-78
2021/12/26 00:39:33;;;;;;;5.30;4.80;;;;;;;;;;5074091;28;20235;-77
2021/12/26 00:42:00;;;;;;;5.88;4.82;;;;;;;;;;5093114;28;20201;-78
2021/12/26 00:44:28;;;;;;;6.03;5.18;;;;;;;;;;5078298;28;20675;-77
2021/12/26 00:46:55;;;;;;;8.80;5.63;;;;;;;;;;5081447;28;20859;-78
2021/12/26 00:49:22;;;;;;;4.43;4.03;;;;;;;;;;5090540;28;20216;-79
2021/12/26 00:51:50;;;;;;;6.10;4.78;;;;;;;;;;5091554;28;20201;-77
2021/12/26 00:54:20;;;;;;;6.40;5.05;;;;;;;;;;5092310;28;20197;-77
2021/12/26 00:56:48;;;;;;;5.00;4.32;;;;;;;;;;5074132;28;20197;-78
2021/12/26 00:59:16;;;;;;;26.42;14.32;;;;;;;;;;5084266;28;20194;-78
2021/12/26 01:01:43;;;;;;;8.88;6.25;;;;;;;;;;5079547;28;20190;-80
2021/12/26 01:04:13;;;;;;;6.68;4.88;;;;;;;;;;5087264;28;20205;-78
2021/12/26 01:06:40;;;;;;;5.28;4.78;;;;;;;;;;5073564;28;20564;-78
2021/12/26 01:09:11;;;;;;;7.65;5.30;;;;;;;;;;5091745;28;20748;-79
2021/12/26 01:11:41;;;;;;;6.35;4.80;;;;;;;;;;5089399;28;20307;-77
2021/12/26 01:14:13;;;;;;;6.03;4.72;;;;;;;;;;5091346;28;20225;-77
2021/12/26 01:16:40;;;;;;;9.43;5.50;;;;;;;;;;5079662;28;20201;-76
2021/12/26 01:19:13;;;;;;;7.03;5.80;;;;;;;;;;5062787;28;20316;-78
2021/12/26 01:21:41;;;;;;;6.88;5.40;;;;;;;;;;5053458;28;20222;-77
2021/12/26 01:24:09;;;;;;;7.45;5.00;;;;;;;;;;5071118;28;20221;-78
2021/12/26 01:26:36;;;;;;;5.32;4.57;;;;;;;;;;5080027;28;20203;-78
2021/12/26 01:29:04;;;;;;;5.78;5.15;;;;;;;;;;5089980;28;20205;-76
2021/12/26 01:31:33;;;;;;;7.32;4.78;;;;;;;;;;5082355;28;20222;-76
2021/12/26 01:34:02;;;;;;;6.88;4.75;;;;;;;;;;5078975;28;20697;-78
2021/12/26 01:36:31;;;;;;;5.68;5.05;;;;;;;;;;5069749;28;20200;-78
2021/12/26 01:38:59;;;;;;;6.47;5.10;;;;;;;;;;5070028;28;20572;-76
2021/12/26 01:41:27;;;;;;;6.32;4.75;;;;;;;;;;5070445;28;20217;-76
2021/12/26 01:43:57;;;;;;;5.57;4.80;;;;;;;;;;5091263;28;20657;-78
2021/12/26 01:46:25;;;;;;;7.75;5.97;;;;;;;;;;5089490;28;20205;-80
2021/12/26 01:49:02;;;;;;;6.28;5.47;;;;;;;;;;5076957;28;20201;-78
2021/12/26 01:51:30;;;;;;;8.15;5.30;;;;;;;;;;5056344;28;20222;-76
2021/12/26 01:53:58;;;;;;;5.90;5.30;;;;;;;;;;5080160;28;20221;-77
2021/12/26 01:56:25;;;;;;;6.68;5.38;;;;;;;;;;5090535;28;20258;-79
2021/12/26 01:58:52;;;;;;;6.43;5.00;;;;;;;;;;5091142;28;20202;-76
2021/12/26 02:01:19;;;;;;;6.45;5.35;;;;;;;;;;5087464;28;20220;-78
2021/12/26 02:03:46;;;;;;;7.88;5.68;;;;;;;;;;5072365;28;20562;-77
2021/12/26 02:06:15;;;;;;;6.97;5.55;;;;;;;;;;5080761;28;20539;-79
2021/12/26 02:08:42;;;;;;;7.13;5.60;;;;;;;;;;5091503;28;20198;-76
2021/12/26 02:11:10;;;;;;;6.70;5.85;;;;;;;;;;5076948;28;20210;-77
2021/12/26 02:13:38;;;;;;;8.00;6.65;;;;;;;;;;5080145;28;20221;-80
2021/12/26 02:16:06;;;;;;;8.73;6.78;;;;;;;;;;5088970;28;20204;-79
2021/12/26 02:18:33;;;;;;;6.35;5.75;;;;;;;;;;5065839;28;20225;-79
2021/12/26 02:21:13;;;;;;;10.10;6.45;;;;;;;;;;5070468;28;20218;-78
2021/12/26 02:23:47;;;;;;;7.45;5.95;;;;;;;;;;5043551;28;20861;-76
2021/12/26 02:28:55;;;;;;;8.38;6.57;;;;;;;;;;5038421;28;20201;-76
2021/12/26 02:31:22;;;;;;;7.15;6.00;;;;;;;;;;5059229;28;20245;-77
2021/12/26 02:33:50;;;;;;;8.07;6.47;;;;;;;;;;5047678;28;20683;-77
2021/12/26 02:36:18;;;;;;;7.35;6.10;;;;;;;;;;5047632;28;20205;-78
2021/12/26 02:38:45;;;;;;;7.35;6.28;;;;;;;;;;5036657;28;20203;-78
2021/12/26 02:41:12;;;;;;;7.45;5.97;;;;;;;;;;5029061;28;20223;-79
2021/12/26 02:43:39;;;;;;;7.15;6.45;;;;;;;;;;5030613;28;20196;-78
2021/12/26 02:46:07;;;;;;;10.35;7.05;;;;;;;;;;5053356;28;20211;-80
2021/12/26 02:48:34;;;;;;;8.48;6.53;;;;;;;;;;5048664;28;20258;-76
2021/12/26 02:51:02;;;;;;;10.05;7.03;;;;;;;;;;5047497;28;20214;-78
2021/12/26 02:53:30;;;;;;;8.95;6.72;;;;;;;;;;5049028;28;20218;-79
2021/12/26 02:56:00;;;;;;;8.13;6.45;;;;;;;;;;5048051;28;20199;-78
2021/12/26 02:58:27;;;;;;;7.72;6.20;;;;;;;;;;5050893;28;20195;-75
2021/12/26 03:00:57;;;;;;;10.35;6.65;;;;;;;;;;5069662;28;20709;-78
2021/12/26 03:03:24;;;;;;;7.85;6.90;;;;;;;;;;5054277;28;20218;-77
2021/12/26 03:05:56;;;;;;;8.85;7.40;;;;;;;;;;5045925;28;21682;-80
2021/12/26 03:08:23;;;;;;;10.73;7.75;;;;;;;;;;5044993;28;20211;-77
2021/12/26 03:10:53;;;;;;;11.45;7.40;;;;;;;;;;5060581;28;20221;-76
2021/12/26 03:13:20;;;;;;;9.45;6.70;;;;;;;;;;5031332;28;20687;-76
2021/12/26 03:15:47;;;;;;;7.85;6.50;;;;;;;;;;5051055;28;20213;-77
2021/12/26 03:18:14;;;;;;;8.07;6.22;;;;;;;;;;5084651;28;20221;-79
2021/12/26 03:20:43;;;;;;;8.55;6.72;;;;;;;;;;5085665;28;20651;-77
2021/12/26 03:23:12;;;;;;;7.07;6.35;;;;;;;;;;5079173;28;20216;-76
2021/12/26 03:25:39;;;;;;;10.18;7.57;;;;;;;;;;5074201;28;20211;-78
2021/12/26 03:28:08;;;;;;;11.45;8.50;;;;;;;;;;5090702;28;20416;-78
2021/12/26 03:30:36;;;;;;;8.07;6.53;;;;;;;;;;5092443;28;20224;-78
2021/12/26 03:33:05;;;;;;;7.57;6.70;;;;;;;;;;5088914;28;20221;-77
2021/12/26 03:35:32;;;;;;;8.95;7.18;;;;;;;;;;5088720;28;20209;-77
2021/12/26 03:38:00;;;;;;;9.80;7.00;;;;;;;;;;5081194;28;20198;-76
2021/12/26 03:40:27;;;;;;;7.90;6.75;;;;;;;;;;5076692;28;20228;-78
2021/12/26 03:42:55;;;;;;;9.13;7.38;;;;;;;;;;5072178;28;20198;-77
2021/12/26 03:45:23;;;;;;;7.32;6.35;;;;;;;;;;5087048;28;20197;-78
2021/12/26 03:47:51;;;;;;;8.90;7.28;;;;;;;;;;5093759;28;20194;-76
2021/12/26 03:50:19;;;;;;;11.52;6.63;;;;;;;;;;5091358;28;20219;-80
2021/12/26 03:52:47;;;;;;;13.25;7.75;;;;;;;;;;5082311;28;20650;-76
2021/12/26 03:55:14;;;;;;;8.82;7.53;;;;;;;;;;5078399;28;20194;-76
2021/12/26 03:57:41;;;;;;;8.13;6.70;;;;;;;;;;5073623;28;20213;-78
2021/12/26 04:00:09;;;;;;;8.93;7.28;;;;;;;;;;5090374;28;20209;-78
2021/12/26 04:02:38;;;;;;;8.05;7.25;;;;;;;;;;5090575;28;20611;-78
2021/12/26 04:05:05;;;;;;;8.40;6.80;;;;;;;;;;5092773;28;20209;-77
2021/12/26 04:07:32;;;;;;;10.43;7.88;;;;;;;;;;5092454;28;20205;-80
2021/12/26 04:09:59;;;;;;;10.07;7.03;;;;;;;;;;5094000;28;20559;-79
2021/12/26 04:12:34;;;;;;;9.77;7.70;;;;;;;;;;5093683;28;20646;-77
2021/12/26 04:15:01;;;;;;;9.10;6.72;;;;;;;;;;5082200;28;20271;-76
2021/12/26 04:17:29;;;;;;;9.27;7.10;;;;;;;;;;5061269;28;20229;-78
2021/12/26 04:19:57;;;;;;;9.30;6.57;;;;;;;;;;5071823;28;20666;-76
2021/12/26 04:22:24;;;;;;;9.60;8.10;;;;;;;;;;5071729;28;20198;-79
2021/12/26 04:24:51;;;;;;;8.43;6.50;;;;;;;;;;5079823;28;20208;-77
2021/12/26 04:27:19;;;;;;;8.75;7.10;;;;;;;;;;5091511;28;20197;-77
2021/12/26 04:29:46;;;;;;;10.75;8.02;;;;;;;;;;5091947;28;20221;-78
2021/12/26 04:32:13;;;;;;;11.05;8.15;;;;;;;;;;5066787;28;20206;-77
2021/12/26 04:34:40;;;;;;;11.30;8.40;;;;;;;;;;5078365;28;20225;-76
2021/12/26 04:37:09;;;;;;;9.60;8.00;;;;;;;;;;5080720;28;20205;-79
2021/12/26 04:39:36;;;;;;;11.98;7.70;;;;;;;;;;5090336;28;20193;-77
2021/12/26 04:42:03;;;;;;;8.98;7.20;;;;;;;;;;5089581;28;20193;-79
2021/12/26 04:44:31;;;;;;;9.02;7.30;;;;;;;;;;5092244;28;20642;-77
2021/12/26 04:46:58;;;;;;;9.35;7.72;;;;;;;;;;5092740;28;20804;-79
2021/12/26 04:49:25;;;;;;;10.10;8.13;;;;;;;;;;5078051;28;20564;-79
2021/12/26 04:51:52;;;;;;;11.25;7.90;;;;;;;;;;5086098;28;20193;-78
2021/12/26 04:54:21;;;;;;;11.40;8.23;;;;;;;;;;5086935;28;20214;-77
2021/12/26 04:56:48;;;;;;;10.95;8.50;;;;;;;;;;5079458;28;20202;-77
2021/12/26 04:59:17;;;;;;;10.70;8.60;;;;;;;;;;5083615;28;20204;-78
2021/12/26 05:01:44;;;;;;;11.95;9.20;;;;;;;;;;5091335;28;20212;-77
2021/12/26 05:04:12;;;;;;;11.10;7.32;;;;;;;;;;5091707;28;20208;-78
2021/12/26 05:06:39;;;;;;;11.48;8.70;;;;;;;;;;5090579;28;20194;-77
2021/12/26 05:09:06;;;;;;;9.85;7.97;;;;;;;;;;5091711;28;20600;-76
2021/12/26 05:11:37;;;;;;;9.93;8.88;;;;;;;;;;5081198;28;20325;-77
2021/12/26 05:14:04;;;;;;;13.98;8.38;;;;;;;;;;5080840;28;20217;-77
2021/12/26 05:16:31;;;;;;;11.30;8.18;;;;;;;;;;5089309;28;20205;-77
2021/12/26 05:18:59;;;;;;;13.05;8.27;;;;;;;;;;5090832;28;20225;-78
2021/12/26 05:21:26;;;;;;;10.07;7.80;;;;;;;;;;5092269;28;20371;-78
2021/12/26 05:23:53;;;;;;;12.35;8.05;;;;;;;;;;5090716;28;20688;-77
2021/12/26 05:26:20;;;;;;;11.60;8.70;;;;;;;;;;5084170;28;20206;-76
2021/12/26 05:28:48;;;;;;;10.27;8.30;;;;;;;;;;5080882;28;20205;-77
2021/12/26 05:31:16;;;;;;;8.40;7.47;;;;;;;;;;5074283;28;20683;-81
2021/12/26 05:33:43;;;;;;;11.35;8.50;;;;;;;;;;5087143;28;20236;-79
2021/12/26 05:36:10;;;;;;;11.20;8.57;;;;;;;;;;5090725;28;20205;-77
2021/12/26 05:38:37;;;;;;;10.77;8.45;;;;;;;;;;5090097;28;20213;-77
2021/12/26 05:41:04;;;;;;;13.13;8.77;;;;;;;;;;5085981;28;20307;-77
2021/12/26 05:43:31;;;;;;;11.25;9.27;;;;;;;;;;5090669;28;20212;-76
2021/12/26 05:46:00;;;;;;;13.05;8.95;;;;;;;;;;5091843;28;20218;-78
2021/12/26 05:48:27;;;;;;;15.35;8.80;;;;;;;;;;5085604;28;20575;-79
2021/12/26 05:50:54;;;;;;;11.30;8.00;;;;;;;;;;5076174;28;20225;-76
2021/12/26 05:53:21;;;;;;;10.95;8.35;;;;;;;;;;5071073;28;20598;-77
2021/12/26 05:55:48;;;;;;;10.60;7.53;;;;;;;;;;5050932;28;20686;-79
2021/12/26 05:58:16;;;;;;;11.90;9.55;;;;;;;;;;5069482;28;20202;-77
2021/12/26 06:00:43;;;;;;;15.25;8.80;;;;;;;;;;5089460;28;20217;-76
2021/12/26 06:03:11;;;;;;;12.18;9.57;;;;;;;;;;5090589;28;20198;-76
2021/12/26 06:05:39;;;;;;;10.55;8.25;;;;;;;;;;5084247;28;20195;-76
2021/12/26 06:08:06;;;;;;;10.32;8.52;;;;;;;;;;5076381;28;20190;-77
2021/12/26 06:10:33;;;;;;;16.33;9.38;;;;;;;;;;5080355;28;20217;-76
2021/12/26 06:13:00;;;;;;;11.93;9.25;;;;;;;;;;5089208;28;20212;-78
2021/12/26 06:15:28;;;;;;;10.95;9.23;;;;;;;;;;5090055;28;20224;-75
2021/12/26 06:17:55;;;;;;;11.07;8.35;;;;;;;;;;5090283;28;20225;-76
2021/12/26 06:20:23;;;;;;;12.82;10.02;;;;;;;;;;5086442;28;20220;-77
2021/12/26 06:22:52;;;;;;;12.43;8.38;;;;;;;;;;5078131;28;20726;-80
2021/12/26 06:25:19;;;;;;;9.57;8.15;;;;;;;;;;5072216;28;20213;-77
2021/12/26 06:27:46;;;;;;;16.83;10.07;;;;;;;;;;5080335;28;20204;-77
2021/12/26 06:30:14;;;;;;;14.00;11.45;;;;;;;;;;5089721;28;20217;-77
2021/12/26 06:32:41;;;;;;;13.77;9.80;;;;;;;;;;5072560;28;20201;-77
2021/12/26 06:35:09;;;;;;;13.02;9.57;;;;;;;;;;5089707;28;20224;-76
2021/12/26 06:37:38;;;;;;;14.35;10.32;;;;;;;;;;5085803;28;20205;-81
2021/12/26 06:40:06;;;;;;;12.77;9.77;;;;;;;;;;5058861;28;20275;-79
2021/12/26 06:42:39;;;;;;;15.35;9.32;;;;;;;;;;5054685;28;20206;-78
2021/12/26 06:45:07;;;;;;;12.70;9.43;;;;;;;;;;5075042;28;20634;-76
2021/12/26 06:47:34;;;;;;;12.27;9.32;;;;;;;;;;5088456;28;20201;-78
2021/12/26 06:50:01;;;;;;;12.48;9.20;;;;;;;;;;5085717;28;20213;-76
2021/12/26 06:52:28;;;;;;;13.85;10.13;;;;;;;;;;5089903;28;20663;-77
2021/12/26 06:57:38;;;;;;;12.15;9.35;;;;;;;;;;5058029;28;20209;-77
2021/12/26 07:00:06;;;;;;;14.52;10.88;;;;;;;;;;5054160;28;20215;-76
2021/12/26 07:02:33;;;;;;;12.70;9.88;;;;;;;;;;5045481;28;20210;-78
2021/12/26 07:05:01;;;;;;;12.32;9.43;;;;;;;;;;5066417;28;20493;-79
2021/12/26 07:07:28;;;;;;;12.88;9.57;;;;;;;;;;5060676;28;20233;-77
2021/12/26 07:09:56;;;;;;;13.32;9.40;;;;;;;;;;5059493;28;20218;-77
2021/12/26 07:12:23;;;;;;;14.10;9.43;;;;;;;;;;5066413;28;20584;-76
2021/12/26 07:14:51;;;;;;;13.95;9.57;;;;;;;;;;5056126;28;20584;-76
2021/12/26 07:17:18;;;;;;;15.18;10.48;;;;;;;;;;5078990;28;20225;-77
2021/12/26 07:19:45;;;;;;;13.88;8.90;;;;;;;;;;5088944;28;20221;-76
2021/12/26 07:22:12;;;;;;;12.73;8.75;;;;;;;;;;5089423;28;20201;-77
2021/12/26 07:24:43;;;;;;;14.43;9.50;;;;;;;;;;5089960;28;20189;-76
2021/12/26 07:27:12;;;;;;;20.38;10.40;;;;;;;;;;5088625;28;20216;-77
2021/12/26 07:29:39;;;;;;;13.95;9.50;;;;;;;;;;5084818;28;20220;-77
2021/12/26 07:32:07;;;;;;;13.77;9.80;;;;;;;;;;5058698;28;20194;-75
2021/12/26 07:34:34;;;;;;;14.73;9.43;;;;;;;;;;5070432;28;20217;-76
2021/12/26 07:37:01;;;;;;;13.13;9.57;;;;;;;;;;5076249;28;20213;-76
2021/12/26 07:39:28;;;;;;;13.80;9.05;;;;;;;;;;5075238;28;20602;-77
2021/12/26 07:41:56;;;;;;;12.63;10.30;;;;;;;;;;5070215;28;20194;-75
2021/12/26 07:44:24;;;;;;;13.75;9.52;;;;;;;;;;5086564;28;20196;-78
2021/12/26 07:46:52;;;;;;;14.30;10.25;;;;;;;;;;5074909;28;20205;-77
2021/12/26 07:49:19;;;;;;;14.05;9.95;;;;;;;;;;5051571;28;20202;-75
2021/12/26 07:51:48;;;;;;;15.02;10.52;;;;;;;;;;5076192;28;20209;-75
2021/12/26 07:54:16;;;;;;;13.80;10.10;;;;;;;;;;5070084;28;20662;-76
2021/12/26 07:56:44;;;;;;;11.13;9.27;;;;;;;;;;5074116;28;20192;-76
2021/12/26 07:59:12;;;;;;;12.75;8.90;;;;;;;;;;5080487;28;20216;-76
2021/12/26 08:01:41;;;;;;;11.07;9.05;;;;;;;;;;5076144;28;20764;-78
2021/12/26 08:04:09;;;;;;;14.85;9.38;;;;;;;;;;5078353;28;20281;-76
2021/12/26 08:06:36;;;;;;;11.52;8.60;;;;;;;;;;5075535;28;20205;-77
2021/12/26 08:09:04;;;;;;;12.68;8.80;;;;;;;;;;5071740;28;20194;-77
2021/12/26 08:11:31;;;;;;;12.68;10.10;;;;;;;;;;5072917;28;20229;-76
2021/12/26 08:13:58;;;;;;;11.45;8.85;;;;;;;;;;5091230;28;20235;-77
2021/12/26 08:16:27;;;;;;;11.10;8.98;;;;;;;;;;5079061;28;20206;-75
2021/12/26 08:18:55;;;;;;;12.50;9.20;;;;;;;;;;5081848;28;20225;-75
2021/12/26 08:21:23;;;;;;;13.00;9.27;;;;;;;;;;5079615;28;20214;-76
2021/12/26 08:23:50;;;;;;;14.48;9.23;;;;;;;;;;5091611;28;20231;-75
2021/12/26 08:26:17;;;;;;;15.48;10.40;;;;;;;;;;5092048;28;20197;-78
2021/12/26 08:28:44;;;;;;;11.40;9.38;;;;;;;;;;5091660;28;20197;-78
2021/12/26 08:31:12;;;;;;;12.45;9.35;;;;;;;;;;5082693;28;20222;-78
2021/12/26 08:33:40;;;;;;;12.93;9.57;;;;;;;;;;5077523;28;20189;-79
2021/12/26 08:36:08;;;;;;;13.20;9.80;;;;;;;;;;5085866;28;20221;-76
2021/12/26 08:38:36;;;;;;;13.15;9.20;;;;;;;;;;5079609;28;20565;-78
2021/12/26 08:41:03;;;;;;;14.85;9.63;;;;;;;;;;5090344;28;20217;-79
2021/12/26 08:43:30;;;;;;;14.45;9.88;;;;;;;;;;5074549;28;21517;-76
2021/12/26 08:45:58;;;;;;;14.50;10.15;;;;;;;;;;5090398;28;20228;-78
2021/12/26 08:48:26;;;;;;;13.23;9.70;;;;;;;;;;5085602;28;20193;-77
2021/12/26 08:50:55;;;;;;;15.38;10.73;;;;;;;;;;5060549;28;20220;-77
2021/12/26 08:53:24;;;;;;;12.50;9.30;;;;;;;;;;5079433;28;20235;-76
2021/12/26 08:55:51;;;;;;;12.43;9.85;;;;;;;;;;5084972;28;20213;-77
2021/12/26 08:58:18;;;;;;;11.82;9.10;;;;;;;;;;5070085;28;20295;-75
2021/12/26 09:00:45;;;;;;;11.98;8.70;;;;;;;;;;5072234;28;20217;-80
2021/12/26 09:03:13;;;;;;;15.25;9.68;;;;;;;;;;5082592;28;20201;-77
2021/12/26 09:05:40;;;;;;;13.43;9.70;;;;;;;;;;5083751;28;20258;-77
2021/12/26 09:08:10;;;;;;;13.45;10.05;;;;;;;;;;5079278;28;20212;-79
2021/12/26 09:10:39;;;;;;;13.57;9.85;;;;;;;;;;5084060;28;20274;-79
2021/12/26 09:13:06;;;;;;;12.07;9.38;;;;;;;;;;5076202;28;20198;-77
2021/12/26 09:15:33;;;;;;;13.98;9.48;;;;;;;;;;5088376;28;20221;-80
2021/12/26 09:18:00;;;;;;;11.00;8.90;;;;;;;;;;5069541;28;20716;-78
2021/12/26 09:20:28;;;;;;;12.88;9.65;;;;;;;;;;5086140;28;20223;-77
2021/12/26 09:22:56;;;;;;;15.55;10.85;;;;;;;;;;5060386;28;20561;-77
2021/12/26 09:25:24;;;;;;;13.20;10.18;;;;;;;;;;5076842;28;20194;-77
2021/12/26 09:27:53;;;;;;;16.45;11.27;;;;;;;;;;5069119;28;20208;-77
2021/12/26 09:30:20;;;;;;;17.73;12.23;;;;;;;;;;5069949;28;20304;-78
2021/12/26 09:32:47;;;;;;;16.98;11.40;;;;;;;;;;5070500;28;20647;-78
2021/12/26 09:35:14;;;;;;;19.55;12.73;;;;;;;;;;5090137;28;20573;-76
2021/12/26 09:37:43;;;;;;;15.55;10.75;;;;;;;;;;5082337;28;20227;-76
2021/12/26 09:40:11;;;;;;;16.27;12.18;;;;;;;;;;5081522;28;20217;-76
2021/12/26 09:42:39;;;;;;;17.73;11.65;;;;;;;;;;5058350;28;20194;-79
2021/12/26 09:45:10;;;;;;;16.52;11.73;;;;;;;;;;5069918;28;20670;-77
2021/12/26 09:47:37;;;;;;;20.38;14.10;;;;;;;;;;5052013;28;20361;-78
2021/12/26 09:50:05;;;;;;;16.83;11.35;;;;;;;;;;5085000;28;20210;-82
2021/12/26 09:52:32;;;;;;;21.05;11.90;;;;;;;;;;5089936;28;20229;-78
2021/12/26 09:55:01;;;;;;;16.63;11.43;;;;;;;;;;5087051;28;20218;-79
2021/12/26 09:57:29;;;;;;;15.25;11.43;;;;;;;;;;5075958;28;20197;-78
2021/12/26 09:59:56;;;;;;;17.38;11.20;;;;;;;;;;5059189;28;20263;-78
2021/12/26 10:02:24;;;;;;;17.63;11.52;;;;;;;;;;5088210;28;20197;-77
2021/12/26 10:04:52;;;;;;;15.48;10.48;;;;;;;;;;5086231;28;20224;-81
2021/12/26 10:07:20;;;;;;;18.05;10.55;;;;;;;;;;5072327;28;20547;-80
2021/12/26 10:09:48;;;;;;;16.80;11.32;;;;;;;;;;5072350;28;20217;-75
2021/12/26 10:12:16;;;;;;;16.83;11.75;;;;;;;;;;5090920;28;20202;-80
2021/12/26 10:14:44;;;;;;;17.23;11.70;;;;;;;;;;5061615;28;20209;-80
2021/12/26 10:17:12;;;;;;;15.65;10.68;;;;;;;;;;5060432;28;20224;-78
2021/12/26 10:19:41;;;;;;;17.88;11.07;;;;;;;;;;5087519;28;20693;-81
2021/12/26 10:22:10;;;;;;;17.55;11.65;;;;;;;;;;5068842;28;20201;-78
2021/12/26 10:24:38;;;;;;;17.65;12.02;;;;;;;;;;5089337;28;20201;-78
2021/12/26 10:27:07;;;;;;;16.17;11.68;;;;;;;;;;5057718;28;20194;-80
2021/12/26 10:29:38;;;;;;;18.13;13.32;;;;;;;;;;5078448;28;20528;-79
2021/12/26 10:32:07;;;;;;;14.10;9.40;;;;;;;;;;5077870;28;20489;-78
2021/12/26 10:34:36;;;;;;;13.73;10.65;;;;;;;;;;5070930;28;20559;-78
2021/12/26 10:37:05;;;;;;;13.50;9.73;;;;;;;;;;5069327;28;20233;-79
2021/12/26 10:39:33;;;;;;;14.18;9.73;;;;;;;;;;5069579;28;20205;-82
2021/12/26 10:42:02;;;;;;;16.35;10.60;;;;;;;;;;5052601;28;20292;-78
2021/12/26 10:44:44;;;;;;;13.73;10.40;;;;;;;;;;5084431;28;20213;-75
2021/12/26 10:47:12;;;;;;;13.45;9.70;;;;;;;;;;5035020;28;20203;-76
2021/12/26 10:49:43;;;;;;;13.93;10.07;;;;;;;;;;5007502;28;20230;-77
2021/12/26 10:52:13;;;;;;;17.58;10.80;;;;;;;;;;5025824;28;20585;-78
2021/12/26 10:54:44;;;;;;;13.18;8.60;;;;;;;;;;5026172;28;20202;-76
2021/12/26 10:57:14;;;;;;;14.48;9.88;;;;;;;;;;5009265;28;20302;-76
2021/12/26 10:59:42;;;;;;;13.32;9.32;;;;;;;;;;5027746;28;20219;-79
2021/12/26 11:02:09;;;;;;;15.45;11.30;;;;;;;;;;5010454;28;20211;-80
2021/12/26 11:04:37;;;;;;;14.18;10.80;;;;;;;;;;5028649;28;20206;-85
2021/12/26 11:07:05;;;;;;;14.60;10.48;;;;;;;;;;5011304;28;20226;-80
2021/12/26 11:09:34;;;;;;;13.75;9.93;;;;;;;;;;5009163;28;20199;-79
2021/12/26 11:12:02;;;;;;;14.98;10.70;;;;;;;;;;5023488;28;20445;-78
2021/12/26 11:14:29;;;;;;;13.23;9.70;;;;;;;;;;5007548;28;20565;-76
2021/12/26 11:16:57;;;;;;;13.73;9.15;;;;;;;;;;5023596;28;20219;-77
2021/12/26 11:19:39;;;;;;;13.60;10.85;;;;;;;;;;5086770;28;20288;-78
2021/12/26 11:22:06;;;;;;;14.27;10.82;;;;;;;;;;5089135;28;20197;-77
2021/12/26 11:24:35;;;;;;;14.77;10.85;;;;;;;;;;5088316;28;20208;-77
2021/12/26 11:27:03;;;;;;;13.50;10.07;;;;;;;;;;5057700;28;20213;-79
2021/12/26 11:29:30;;;;;;;14.57;9.82;;;;;;;;;;5078436;28;20217;-78
2021/12/26 11:31:57;;;;;;;14.68;10.02;;;;;;;;;;5088129;28;20197;-78
2021/12/26 11:34:26;;;;;;;14.98;10.55;;;;;;;;;;5073559;28;20286;-77
2021/12/26 11:36:53;;;;;;;13.10;10.32;;;;;;;;;;5091597;28;20274;-77
2021/12/26 11:39:21;;;;;;;14.68;10.10;;;;;;;;;;5071378;28;20199;-78
2021/12/26 11:41:56;;;;;;;13.15;10.20;;;;;;;;;;5088421;28;20569;-77
2021/12/26 11:44:35;;;;;;;13.70;10.20;;;;;;;;;;5078338;28;20197;-77
2021/12/26 11:47:13;;;;;;;15.27;9.52;;;;;;;;;;5075101;28;20661;-77
2021/12/26 11:49:50;;;;;;;16.98;10.27;;;;;;;;;;5078385;28;20214;-77
2021/12/26 11:52:23;;;;;;;12.43;9.85;;;;;;;;;;5081981;28;20280;-75
2021/12/26 11:54:59;;;;;;;12.07;10.38;;;;;;;;;;5087781;28;20674;-77
2021/12/26 11:57:42;;;;;;;12.18;10.43;;;;;;;;;;5074225;28;20585;-76
2021/12/26 12:00:14;;;;;;;12.93;9.45;;;;;;;;;;5073983;28;20213;-77
2021/12/26 12:02:43;;;;;;;13.18;9.30;;;;;;;;;;5089698;28;20297;-77
2021/12/26 12:05:12;;;;;;;13.40;8.55;;;;;;;;;;5068110;28;20666;-78
2021/12/26 12:07:47;;;;;;;13.02;9.98;;;;;;;;;;5079081;28;20293;-78
2021/12/26 12:10:29;;;;;;;13.38;9.35;;;;;;;;;;5074960;28;20221;-77
2021/12/26 12:12:57;;;;;;;14.60;9.93;;;;;;;;;;5079932;28;20201;-78
2021/12/26 12:15:41;;;;;;;13.43;9.60;;;;;;;;;;5087955;28;20196;-78
2021/12/26 12:18:09;;;;;;;13.15;8.77;;;;;;;;;;5055207;28;20233;-77
2021/12/26 12:20:36;;;;;;;11.80;8.48;;;;;;;;;;5069827;28;20213;-78
2021/12/26 12:23:12;;;;;;;16.25;9.88;;;;;;;;;;5091755;28;20193;-77
2021/12/26 12:25:40;;;;;;;12.75;9.40;;;;;;;;;;5092286;28;20605;-78
2021/12/26 12:28:09;;;;;;;11.20;8.65;;;;;;;;;;5062748;28;20194;-77
2021/12/26 12:30:37;;;;;;;12.55;9.93;;;;;;;;;;5078444;28;21414;-77
2021/12/26 12:33:19;;;;;;;12.80;8.93;;;;;;;;;;5086234;28;20200;-77
2021/12/26 12:35:49;;;;;;;12.18;8.10;;;;;;;;;;5074780;28;20753;-78
2021/12/26 12:38:25;;;;;;;11.65;8.73;;;;;;;;;;5073372;28;20194;-79
2021/12/26 12:40:52;;;;;;;12.60;9.95;;;;;;;;;;5070317;28;20577;-78
2021/12/26 12:43:22;;;;;;;12.10;8.32;;;;;;;;;;5068332;28;20198;-79
2021/12/26 12:46:06;;;;;;;12.48;9.95;;;;;;;;;;5076961;28;20201;-78
2021/12/26 12:48:34;;;;;;;12.88;8.50;;;;;;;;;;5067350;28;20209;-78
2021/12/26 12:51:03;;;;;;;12.90;9.13;;;;;;;;;;5064455;28;20316;-78
2021/12/26 12:53:38;;;;;;;11.68;8.90;;;;;;;;;;5060106;28;20190;-77
2021/12/26 12:56:06;;;;;;;10.93;8.25;;;;;;;;;;5090019;28;20236;-76
2021/12/26 12:58:36;;;;;;;13.00;9.70;;;;;;;;;;5071617;28;20227;-77
2021/12/26 13:01:05;;;;;;;15.75;9.43;;;;;;;;;;5077788;28;20321;-76
2021/12/26 13:03:34;;;;;;;10.60;8.50;;;;;;;;;;5079771;28;20648;-77
2021/12/26 13:06:06;;;;;;;11.63;9.20;;;;;;;;;;5091173;28;20193;-79
2021/12/26 13:08:34;;;;;;;13.57;8.75;;;;;;;;;;5089750;28;20201;-78
2021/12/26 13:11:02;;;;;;;11.30;9.00;;;;;;;;;;5091221;28;20221;-78
2021/12/26 13:13:30;;;;;;;12.80;10.05;;;;;;;;;;5089735;28;20201;-76
2021/12/26 13:16:12;;;;;;;15.27;9.30;;;;;;;;;;5083257;28;20688;-76
2021/12/26 13:18:41;;;;;;;11.60;8.57;;;;;;;;;;5025142;28;20223;-77
2021/12/26 13:21:09;;;;;;;15.45;10.57;;;;;;;;;;5026266;28;20694;-76
2021/12/26 13:23:37;;;;;;;13.25;9.50;;;;;;;;;;5027295;28;20560;-77
2021/12/26 13:26:05;;;;;;;13.05;8.55;;;;;;;;;;5012222;28;20210;-77
2021/12/26 13:28:32;;;;;;;13.55;9.25;;;;;;;;;;5012335;28;20731;-77
2021/12/26 13:31:00;;;;;;;11.23;8.60;;;;;;;;;;5028180;28;20314;-78
2021/12/26 13:33:30;;;;;;;12.40;8.60;;;;;;;;;;5027792;28;20664;-76
2021/12/26 13:36:00;;;;;;;13.60;9.57;;;;;;;;;;5026205;28;20242;-76
2021/12/26 13:38:27;;;;;;;14.13;9.45;;;;;;;;;;5025095;28;20660;-76
2021/12/26 13:40:55;;;;;;;15.00;8.95;;;;;;;;;;5028754;28;20756;-78
2021/12/26 13:43:26;;;;;;;12.30;10.00;;;;;;;;;;5029519;28;20203;-79
2021/12/26 13:45:55;;;;;;;15.75;10.80;;;;;;;;;;5013901;28;20199;-79
2021/12/26 13:48:30;;;;;;;10.75;8.52;;;;;;;;;;5027647;28;20727;-77
2021/12/26 13:50:59;;;;;;;12.00;9.45;;;;;;;;;;5080866;28;20213;-79
2021/12/26 13:53:26;;;;;;;16.75;10.18;;;;;;;;;;5075842;28;20554;-81
2021/12/26 13:55:55;;;;;;;14.57;9.93;;;;;;;;;;5086923;28;20212;-78
2021/12/26 13:58:26;;;;;;;14.05;10.00;;;;;;;;;;5078496;28;20200;-78
2021/12/26 14:00:54;;;;;;;15.82;10.77;;;;;;;;;;5083807;28;20307;-77
2021/12/26 14:03:21;;;;;;;13.40;9.32;;;;;;;;;;5071969;28;20200;-78
2021/12/26 14:05:49;;;;;;;15.15;8.30;;;;;;;;;;5090810;28;20197;-79
2021/12/26 14:08:19;;;;;;;12.85;8.75;;;;;;;;;;5091337;28;20205;-78
2021/12/26 14:10:46;;;;;;;11.50;8.35;;;;;;;;;;5068893;28;20583;-77
2021/12/26 14:13:19;;;;;;;14.85;10.20;;;;;;;;;;5071774;28;20202;-78
2021/12/26 14:15:49;;;;;;;15.10;9.88;;;;;;;;;;5087810;28;20283;-77
2021/12/26 14:18:17;;;;;;;15.07;10.60;;;;;;;;;;5083730;28;20709;-76
2021/12/26 14:20:46;;;;;;;12.73;9.98;;;;;;;;;;5060900;28;20210;-76
2021/12/26 14:23:15;;;;;;;13.48;8.55;;;;;;;;;;5082643;28;20209;-77
2021/12/26 14:25:44;;;;;;;11.10;8.02;;;;;;;;;;5071040;28;20234;-79
2021/12/26 14:28:14;;;;;;;14.35;10.18;;;;;;;;;;5090718;28;20412;-78
2021/12/26 14:30:41;;;;;;;12.90;9.52;;;;;;;;;;5072705;28;20217;-79
2021/12/26 14:33:08;;;;;;;12.23;9.18;;;;;;;;;;5090262;28;20643;-77
2021/12/26 14:35:35;;;;;;;13.27;9.23;;;;;;;;;;5078417;28;20197;-78
2021/12/26 14:38:11;;;;;;;11.60;8.70;;;;;;;;;;5077679;28;20217;-78
2021/12/26 14:40:50;;;;;;;11.45;9.18;;;;;;;;;;5059769;28;20607;-78
2021/12/26 14:43:18;;;;;;;12.57;8.82;;;;;;;;;;5089719;28;20201;-77